createdAt,value
2022-10-09T00:01:15.371Z,14.58
2022-10-09T00:03:43.809Z,14.58
2022-10-09T00:06:12.181Z,14.81
2022-10-09T00:08:39.711Z,14.96
2022-10-09T00:11:07.813Z,14.98
2022-10-09T00:13:34.587Z,14.91
2022-10-09T00:16:06.049Z,14.69
2022-10-09T00:18:33.064Z,14.66
2022-10-09T00:20:59.416Z,14.64
2022-10-09T00:23:26.223Z,14.67
2022-10-09T00:25:56.031Z,14.61
2022-10-09T00:28:24.114Z,14.50
2022-10-09T00:30:50.991Z,14.46
2022-10-09T00:33:17.859Z,14.15
2022-10-09T00:35:44.177Z,14.24
2022-10-09T00:38:11.216Z,13.99
2022-10-09T00:40:38.621Z,13.95
2022-10-09T00:43:13.166Z,14.01
2022-10-09T00:45:44.915Z,14.00
2022-10-09T00:48:12.241Z,14.03
2022-10-09T00:50:41.886Z,14.05
2022-10-09T00:53:13.374Z,13.87
2022-10-09T00:55:40.140Z,14.04
2022-10-09T00:58:06.800Z,13.98
2022-10-09T01:00:33.133Z,14.03
2022-10-09T01:02:59.808Z,14.14
2022-10-09T01:05:42.944Z,14.13
2022-10-09T01:08:24.892Z,13.94
2022-10-09T01:11:04.178Z,13.72
2022-10-09T01:13:38.731Z,13.67
2022-10-09T01:16:20.362Z,13.68
2022-10-09T01:19:12.511Z,13.48
2022-10-09T01:21:46.579Z,13.66
2022-10-09T01:24:24.575Z,13.62
2022-10-09T01:26:55.879Z,13.34
2022-10-09T01:29:26.595Z,13.52
2022-10-09T01:31:54.119Z,13.54
2022-10-09T01:34:21.568Z,13.51
2022-10-09T01:36:48.539Z,13.47
2022-10-09T01:39:21.284Z,13.54
2022-10-09T01:41:50.837Z,13.51
2022-10-09T01:44:18.666Z,13.67
2022-10-09T01:46:45.775Z,13.49
2022-10-09T01:49:24.948Z,13.51
2022-10-09T01:52:00.420Z,13.53
2022-10-09T01:55:02.932Z,13.47
2022-10-09T01:57:37.272Z,13.58
2022-10-09T02:00:08.310Z,13.62
2022-10-09T02:02:35.580Z,13.58
2022-10-09T02:05:02.135Z,13.53
2022-10-09T02:07:31.397Z,13.45
2022-10-09T02:10:01.569Z,13.47
2022-10-09T02:12:31.785Z,13.52
2022-10-09T02:14:58.173Z,13.41
2022-10-09T02:17:30.755Z,13.44
2022-10-09T02:20:03.534Z,13.60
2022-10-09T02:22:31.410Z,13.45
2022-10-09T02:25:00.589Z,13.43
2022-10-09T02:27:27.987Z,13.62
2022-10-09T02:29:54.959Z,13.61
2022-10-09T02:32:21.627Z,13.61
2022-10-09T02:34:47.911Z,13.45
2022-10-09T02:37:14.668Z,13.39
2022-10-09T02:39:41.958Z,13.35
2022-10-09T02:42:08.259Z,13.50
2022-10-09T02:44:34.680Z,13.59
2022-10-09T02:47:01.217Z,13.63
2022-10-09T02:49:27.516Z,13.59
2022-10-09T02:51:53.820Z,13.65
2022-10-09T02:54:20.110Z,13.66
2022-10-09T02:56:46.417Z,13.53
2022-10-09T02:59:12.702Z,13.10
2022-10-09T03:01:39.165Z,13.10
2022-10-09T03:04:05.670Z,13.14
2022-10-09T03:06:32.812Z,13.34
2022-10-09T03:08:59.105Z,13.30
2022-10-09T03:11:26.408Z,13.29
2022-10-09T03:13:54.289Z,13.07
2022-10-09T03:16:23.759Z,13.16
2022-10-09T03:18:51.127Z,13.21
2022-10-09T03:21:20.042Z,13.29
2022-10-09T03:23:47.070Z,13.09
2022-10-09T03:26:16.463Z,13.09
2022-10-09T03:28:46.819Z,12.98
2022-10-09T03:31:33.097Z,12.91
2022-10-09T03:34:00.956Z,12.95
2022-10-09T03:36:27.235Z,12.98
2022-10-09T03:38:53.525Z,12.87
2022-10-09T03:41:19.810Z,12.84
2022-10-09T03:43:46.109Z,12.72
2022-10-09T03:46:12.672Z,12.84
2022-10-09T03:48:39.031Z,12.95
2022-10-09T03:51:05.483Z,12.92
2022-10-09T03:53:31.885Z,12.85
2022-10-09T03:55:58.423Z,12.93
2022-10-09T03:58:24.826Z,13.04
2022-10-09T04:00:52.758Z,13.06
2022-10-09T04:03:19.662Z,12.74
2022-10-09T04:05:47.094Z,12.79
2022-10-09T04:08:13.476Z,12.73
2022-10-09T04:10:39.798Z,12.72
2022-10-09T04:13:06.482Z,12.67
2022-10-09T04:15:32.835Z,12.73
2022-10-09T04:17:59.199Z,12.67
2022-10-09T04:20:25.570Z,12.79
2022-10-09T04:22:52.042Z,12.90
2022-10-09T04:25:18.439Z,12.71
2022-10-09T04:27:44.754Z,12.85
2022-10-09T04:30:11.348Z,12.92
2022-10-09T04:32:37.668Z,12.96
2022-10-09T04:35:04.632Z,13.00
2022-10-09T04:37:30.957Z,13.03
2022-10-09T04:39:57.246Z,13.08
2022-10-09T04:42:23.529Z,13.07
2022-10-09T04:44:49.853Z,13.17
2022-10-09T04:47:17.386Z,13.00
2022-10-09T04:49:43.680Z,13.13
2022-10-09T04:52:09.980Z,13.03
2022-10-09T04:54:36.255Z,13.05
2022-10-09T04:57:02.562Z,12.93
2022-10-09T04:59:29.109Z,12.84
2022-10-09T05:01:55.422Z,12.95
2022-10-09T05:04:21.764Z,12.78
2022-10-09T05:06:48.123Z,12.83
2022-10-09T05:09:14.419Z,12.89
2022-10-09T05:11:42.879Z,12.63
2022-10-09T05:14:09.762Z,12.68
2022-10-09T05:17:01.025Z,12.82
2022-10-09T05:19:23.172Z,12.67
2022-10-09T05:21:49.473Z,12.80
2022-10-09T05:24:15.763Z,12.83
2022-10-09T05:26:42.077Z,12.95
2022-10-09T05:29:08.400Z,13.01
2022-10-09T05:31:34.870Z,12.78
2022-10-09T05:34:01.968Z,12.90
2022-10-09T05:36:28.427Z,13.00
2022-10-09T05:38:55.572Z,13.00
2022-10-09T05:41:21.851Z,12.93
2022-10-09T05:43:49.581Z,12.91
2022-10-09T05:46:17.283Z,12.77
2022-10-09T05:48:45.699Z,12.73
2022-10-09T05:51:15.103Z,12.68
2022-10-09T05:53:42.603Z,12.76
2022-10-09T05:56:39.335Z,12.80
2022-10-09T05:59:11.152Z,12.80
2022-10-09T06:01:40.141Z,12.70
2022-10-09T06:04:10.773Z,12.69
2022-10-09T06:06:39.485Z,12.69
2022-10-09T06:09:07.043Z,12.40
2022-10-09T06:11:35.410Z,12.36
2022-10-09T06:14:05.354Z,12.48
2022-10-09T06:16:34.904Z,12.55
2022-10-09T06:19:02.358Z,12.71
2022-10-09T06:21:29.291Z,12.45
2022-10-09T06:23:58.573Z,12.51
2022-10-09T06:26:26.321Z,12.40
2022-10-09T06:28:52.941Z,12.35
2022-10-09T06:31:21.789Z,12.28
2022-10-09T06:33:50.062Z,12.37
2022-10-09T06:36:26.043Z,12.55
2022-10-09T06:38:53.135Z,12.63
2022-10-09T06:41:24.303Z,12.56
2022-10-09T06:43:51.796Z,12.54
2022-10-09T06:46:19.726Z,12.35
2022-10-09T06:48:46.372Z,12.49
2022-10-09T06:51:18.391Z,12.36
2022-10-09T06:53:50.106Z,12.48
2022-10-09T06:56:18.380Z,12.44
2022-10-09T06:58:45.089Z,12.70
2022-10-09T07:01:20.228Z,12.71
2022-10-09T07:03:52.188Z,12.71
2022-10-09T07:06:21.389Z,12.84
2022-10-09T07:08:50.724Z,12.71
2022-10-09T07:11:21.213Z,12.74
2022-10-09T07:13:50.688Z,12.88
2022-10-09T07:16:23.397Z,13.03
2022-10-09T07:18:50.325Z,13.05
2022-10-09T07:21:16.966Z,13.15
2022-10-09T07:23:43.642Z,13.13
2022-10-09T07:26:13.079Z,13.17
2022-10-09T07:28:41.076Z,13.19
2022-10-09T07:31:08.065Z,13.25
2022-10-09T07:33:34.560Z,13.18
2022-10-09T07:36:02.747Z,13.39
2022-10-09T07:38:29.527Z,13.39
2022-10-09T07:41:09.493Z,13.39
2022-10-09T07:43:37.413Z,13.25
2022-10-09T07:46:05.848Z,13.32
2022-10-09T07:48:33.969Z,13.21
2022-10-09T07:51:08.076Z,13.38
2022-10-09T07:53:36.038Z,13.34
2022-10-09T07:56:04.241Z,13.49
2022-10-09T07:58:30.960Z,13.54
2022-10-09T08:01:03.524Z,13.66
2022-10-09T08:03:29.847Z,13.66
2022-10-09T08:05:56.908Z,13.53
2022-10-09T08:08:23.219Z,13.40
2022-10-09T08:10:49.525Z,13.56
2022-10-09T08:13:16.582Z,13.51
2022-10-09T08:15:44.027Z,13.64
2022-10-09T08:18:11.593Z,13.63
2022-10-09T08:20:38.838Z,13.76
2022-10-09T08:23:06.059Z,13.93
2022-10-09T08:25:36.806Z,14.00
2022-10-09T08:28:04.707Z,14.07
2022-10-09T08:30:31.349Z,14.04
2022-10-09T08:32:57.657Z,14.09
2022-10-09T08:35:23.994Z,14.08
2022-10-09T08:37:50.539Z,14.25
2022-10-09T08:40:21.903Z,14.30
2022-10-09T08:42:59.833Z,14.26
2022-10-09T08:45:26.467Z,14.45
2022-10-09T08:48:00.995Z,14.52
2022-10-09T08:50:35.722Z,14.63
2022-10-09T08:53:19.261Z,14.68
2022-10-09T08:55:50.630Z,14.70
2022-10-09T08:58:20.030Z,14.70
2022-10-09T09:00:54.106Z,14.79
2022-10-09T09:03:53.385Z,14.90
2022-10-09T09:06:46.838Z,14.74
2022-10-09T09:09:44.143Z,14.82
2022-10-09T09:12:22.777Z,14.90
2022-10-09T09:14:49.005Z,15.01
2022-10-09T09:17:30.213Z,15.03
2022-10-09T09:20:21.120Z,15.02
2022-10-09T09:22:50.036Z,15.01
2022-10-09T09:25:22.875Z,15.18
2022-10-09T09:27:51.795Z,15.24
2022-10-09T09:30:27.710Z,15.17
2022-10-09T09:32:59.186Z,14.99
2022-10-09T09:35:50.233Z,15.19
2022-10-09T09:38:17.187Z,15.16
2022-10-09T09:40:47.332Z,15.04
2022-10-09T09:43:18.084Z,15.09
2022-10-09T09:45:45.781Z,15.18
2022-10-09T09:48:30.950Z,15.22
2022-10-09T09:51:16.025Z,15.08
2022-10-09T09:53:48.394Z,15.04
2022-10-09T09:56:15.677Z,15.13
2022-10-09T09:58:48.702Z,15.04
2022-10-09T10:01:24.345Z,14.95
2022-10-09T10:03:53.816Z,14.82
2022-10-09T10:06:25.701Z,14.81
2022-10-09T10:09:15.932Z,14.79
2022-10-09T10:12:03.760Z,14.85
2022-10-09T10:14:31.985Z,14.96
2022-10-09T10:17:00.616Z,14.93
2022-10-09T10:19:29.666Z,15.01
2022-10-09T10:22:01.549Z,15.01
2022-10-09T10:24:33.874Z,15.00
2022-10-09T10:27:09.577Z,14.96
2022-10-09T10:29:41.093Z,15.15
2022-10-09T10:32:38.220Z,15.32
2022-10-09T10:35:13.106Z,15.28
2022-10-09T10:38:03.902Z,15.30
2022-10-09T10:41:04.752Z,15.13
2022-10-09T10:43:38.815Z,15.29
2022-10-09T10:46:10.205Z,15.23
2022-10-09T10:48:42.777Z,15.47
2022-10-09T10:51:34.526Z,15.30
2022-10-09T10:54:19.596Z,15.41
2022-10-09T10:56:55.538Z,15.61
2022-10-09T10:59:39.751Z,15.65
2022-10-09T11:02:32.920Z,15.80
2022-10-09T11:05:02.544Z,15.73
2022-10-09T11:08:00.367Z,15.53
2022-10-09T11:10:59.508Z,15.80
2022-10-09T11:13:34.835Z,15.94
2022-10-09T11:16:18.852Z,16.11
2022-10-09T11:19:36.198Z,16.21
2022-10-09T11:22:20.990Z,16.10
2022-10-09T11:25:29.450Z,16.14
2022-10-09T11:28:03.670Z,16.24
2022-10-09T11:30:45.020Z,16.07
2022-10-09T11:33:22.891Z,16.18
2022-10-09T11:35:56.348Z,16.03
2022-10-09T11:38:29.676Z,16.18
2022-10-09T11:40:57.835Z,16.13
2022-10-09T11:43:27.057Z,16.17
2022-10-09T11:46:14.845Z,15.78
2022-10-09T11:48:48.090Z,16.01
2022-10-09T11:51:40.696Z,16.20
2022-10-09T11:54:13.263Z,16.09
2022-10-09T11:56:39.563Z,15.84
2022-10-09T11:59:07.832Z,15.89
2022-10-09T12:01:37.570Z,15.95
2022-10-09T12:04:13.205Z,15.88
2022-10-09T12:06:48.491Z,15.94
2022-10-09T12:09:35.080Z,15.99
2022-10-09T12:12:07.305Z,16.05
2022-10-09T12:14:36.861Z,15.76
2022-10-09T12:17:31.344Z,15.95
2022-10-09T12:20:20.260Z,15.96
2022-10-09T12:23:13.903Z,15.83
2022-10-09T12:25:43.747Z,15.72
2022-10-09T12:28:33.692Z,15.69
2022-10-09T12:31:03.287Z,15.81
2022-10-09T12:33:36.268Z,16.07
2022-10-09T12:36:13.309Z,16.32
2022-10-09T12:38:40.213Z,16.33
2022-10-09T12:41:17.941Z,16.46
2022-10-09T12:43:47.476Z,16.54
2022-10-09T12:46:13.906Z,16.60
2022-10-09T12:48:42.467Z,16.53
2022-10-09T12:51:23.084Z,16.57
2022-10-09T12:53:51.356Z,16.18
2022-10-09T12:56:26.853Z,16.23
2022-10-09T12:58:54.253Z,16.14
2022-10-09T13:01:21.728Z,16.32
2022-10-09T13:04:04.982Z,16.21
2022-10-09T13:06:44.086Z,16.33
2022-10-09T13:09:22.119Z,16.43
2022-10-09T13:11:55.576Z,16.44
2022-10-09T13:14:44.030Z,16.45
2022-10-09T13:17:24.700Z,16.38
2022-10-09T13:19:54.575Z,16.49
2022-10-09T13:22:23.602Z,16.56
2022-10-09T13:24:53.259Z,16.60
2022-10-09T13:27:21.381Z,16.70
2022-10-09T13:29:48.559Z,16.68
2022-10-09T13:32:16.877Z,16.67
2022-10-09T13:34:45.393Z,16.71
2022-10-09T13:37:13.959Z,16.80
2022-10-09T13:39:40.293Z,16.78
2022-10-09T13:42:06.887Z,16.88
2022-10-09T13:44:33.188Z,16.91
2022-10-09T13:47:00.082Z,16.82
2022-10-09T13:49:26.473Z,16.87
2022-10-09T13:51:52.827Z,16.84
2022-10-09T13:54:19.145Z,16.90
2022-10-09T13:56:45.434Z,16.90
2022-10-09T13:59:12.034Z,16.88
2022-10-09T14:01:38.372Z,16.86
2022-10-09T14:04:04.753Z,16.74
2022-10-09T14:06:34.186Z,16.88
2022-10-09T14:09:00.486Z,16.96
2022-10-09T14:11:26.796Z,17.01
2022-10-09T14:13:53.089Z,17.01
2022-10-09T14:16:19.380Z,17.05
2022-10-09T14:18:45.672Z,17.11
2022-10-09T14:21:15.256Z,17.15
2022-10-09T14:23:42.218Z,17.14
2022-10-09T14:26:08.875Z,17.06
2022-10-09T14:28:35.317Z,17.12
2022-10-09T14:31:07.653Z,17.16
2022-10-09T14:33:34.114Z,17.21
2022-10-09T14:36:11.658Z,17.22
2022-10-09T14:38:39.026Z,17.17
2022-10-09T14:41:05.962Z,17.14
2022-10-09T14:43:32.914Z,17.18
2022-10-09T14:46:03.359Z,17.12
2022-10-09T14:48:29.635Z,17.08
2022-10-09T14:50:55.932Z,17.00
2022-10-09T14:53:22.399Z,17.04
2022-10-09T14:55:48.689Z,17.14
2022-10-09T14:58:15.163Z,17.06
2022-10-09T15:00:46.453Z,17.16
2022-10-09T15:03:12.826Z,17.23
2022-10-09T15:05:39.122Z,17.23
2022-10-09T15:08:05.403Z,17.27
2022-10-09T15:10:34.237Z,17.16
2022-10-09T15:13:00.516Z,17.27
2022-10-09T15:15:30.312Z,17.35
2022-10-09T15:17:58.917Z,17.41
2022-10-09T15:20:25.205Z,17.39
2022-10-09T15:22:51.531Z,17.35
2022-10-09T15:25:17.889Z,17.33
2022-10-09T15:27:44.184Z,17.27
2022-10-09T15:30:11.123Z,17.27
2022-10-09T15:32:37.469Z,17.32
2022-10-09T15:35:03.999Z,17.30
2022-10-09T15:37:30.301Z,17.35
2022-10-09T15:39:56.667Z,17.38
2022-10-09T15:42:22.945Z,17.35
2022-10-09T15:44:49.257Z,17.22
2022-10-09T15:47:16.521Z,17.24
2022-10-09T15:49:46.598Z,17.28
2022-10-09T15:52:15.435Z,17.25
2022-10-09T15:54:41.710Z,17.25
2022-10-09T15:57:08.052Z,17.27
2022-10-09T15:59:37.170Z,17.32
2022-10-09T16:02:03.791Z,17.33
2022-10-09T16:04:30.148Z,17.33
2022-10-09T16:06:57.997Z,17.40
2022-10-09T16:09:24.286Z,17.35
2022-10-09T16:11:50.561Z,17.33
2022-10-09T16:14:16.834Z,17.04
2022-10-09T16:16:43.109Z,17.00
2022-10-09T16:19:09.413Z,16.97
2022-10-09T16:21:35.723Z,17.05
2022-10-09T16:24:02.030Z,17.12
2022-10-09T16:26:29.257Z,17.06
2022-10-09T16:28:55.694Z,16.98
2022-10-09T16:31:24.386Z,17.10
2022-10-09T16:33:50.739Z,17.07
2022-10-09T16:36:17.168Z,17.05
2022-10-09T16:38:43.875Z,16.96
2022-10-09T16:41:17.975Z,17.10
2022-10-09T16:43:45.991Z,17.21
2022-10-09T16:46:28.898Z,17.18
2022-10-09T16:48:57.074Z,17.24
2022-10-09T16:51:29.123Z,17.29
2022-10-09T16:53:58.615Z,17.27
2022-10-09T16:56:29.526Z,17.33
2022-10-09T16:58:57.676Z,17.35
2022-10-09T17:01:25.130Z,17.26
2022-10-09T17:03:54.088Z,17.31
2022-10-09T17:06:20.877Z,17.23
2022-10-09T17:08:47.999Z,17.19
2022-10-09T17:11:15.071Z,17.20
2022-10-09T17:13:41.646Z,17.22
2022-10-09T17:16:15.694Z,17.24
2022-10-09T17:18:44.713Z,17.26
2022-10-09T17:21:16.497Z,17.23
2022-10-09T17:23:42.822Z,17.00
2022-10-09T17:26:15.337Z,17.06
2022-10-09T17:28:42.566Z,17.02
2022-10-09T17:31:14.013Z,17.08
2022-10-09T17:33:42.831Z,16.97
2022-10-09T17:36:10.579Z,17.01
2022-10-09T17:38:37.131Z,16.98
2022-10-09T17:41:08.758Z,17.02
2022-10-09T17:43:35.371Z,16.95
2022-10-09T17:46:01.886Z,16.89
2022-10-09T17:48:29.640Z,16.88
2022-10-09T17:50:57.775Z,16.89
2022-10-09T17:53:25.193Z,16.91
2022-10-09T17:55:53.300Z,16.86
2022-10-09T17:58:21.513Z,16.84
2022-10-09T18:00:48.787Z,16.82
2022-10-09T18:03:16.538Z,16.77
2022-10-09T18:05:48.949Z,16.76
2022-10-09T18:08:18.038Z,16.78
2022-10-09T18:10:44.899Z,16.76
2022-10-09T18:13:11.742Z,16.71
2022-10-09T18:15:43.253Z,16.69
2022-10-09T18:18:10.943Z,16.64
2022-10-09T18:20:39.197Z,16.64
2022-10-09T18:23:06.878Z,16.57
2022-10-09T18:25:33.391Z,16.50
2022-10-09T18:28:00.171Z,16.43
2022-10-09T18:30:27.488Z,16.38
2022-10-09T18:32:53.800Z,16.45
2022-10-09T18:35:20.140Z,16.45
2022-10-09T18:37:46.467Z,16.43
2022-10-09T18:40:13.922Z,16.33
2022-10-09T18:42:40.247Z,16.28
2022-10-09T18:45:07.590Z,16.34
2022-10-09T18:47:35.591Z,16.31
2022-10-09T18:50:06.363Z,16.33
2022-10-09T18:52:33.769Z,16.36
2022-10-09T18:55:00.891Z,16.21
2022-10-09T18:57:27.278Z,16.26
2022-10-09T18:59:55.399Z,16.19
2022-10-09T19:02:26.145Z,16.07
2022-10-09T19:04:53.885Z,15.98
2022-10-09T19:07:20.357Z,15.98
2022-10-09T19:09:51.368Z,15.99
2022-10-09T19:12:21.311Z,15.97
2022-10-09T19:14:47.669Z,15.94
2022-10-09T19:17:14.465Z,15.84
2022-10-09T19:19:41.083Z,15.90
2022-10-09T19:22:09.714Z,15.85
2022-10-09T19:24:39.223Z,15.75
2022-10-09T19:27:06.492Z,15.71
2022-10-09T19:29:33.090Z,15.75
2022-10-09T19:31:59.465Z,15.50
2022-10-09T19:34:25.812Z,15.51
2022-10-09T19:36:52.215Z,15.54
2022-10-09T19:39:19.386Z,15.59
2022-10-09T19:41:53.592Z,15.63
2022-10-09T19:44:19.941Z,15.66
2022-10-09T19:46:51.616Z,15.62
2022-10-09T19:49:18.369Z,15.66
2022-10-09T19:51:45.816Z,15.60
2022-10-09T19:54:12.281Z,15.66
2022-10-09T19:56:40.162Z,15.58
2022-10-09T19:59:17.277Z,15.21
2022-10-09T20:01:43.799Z,15.12
2022-10-09T20:04:10.916Z,15.13
2022-10-09T20:06:42.603Z,15.29
2022-10-09T20:09:15.587Z,15.32
2022-10-09T20:11:48.654Z,15.32
2022-10-09T20:14:15.487Z,15.27
2022-10-09T20:16:41.983Z,15.39
2022-10-09T20:19:08.394Z,15.27
2022-10-09T20:21:38.379Z,15.29
2022-10-09T20:24:06.266Z,15.40
2022-10-09T20:26:33.091Z,15.44
2022-10-09T20:28:59.993Z,15.46
2022-10-09T20:31:30.141Z,15.52
2022-10-09T20:33:56.743Z,15.34
2022-10-09T20:36:42.292Z,15.41
2022-10-09T20:39:15.169Z,15.42
2022-10-09T20:41:54.774Z,15.53
2022-10-09T20:44:21.944Z,15.43
2022-10-09T20:46:58.424Z,15.49
2022-10-09T20:49:32.418Z,15.60
2022-10-09T20:51:58.905Z,15.48
2022-10-09T20:54:27.851Z,15.50
2022-10-09T20:57:03.980Z,15.50
2022-10-09T20:59:30.350Z,15.41
2022-10-09T21:01:57.119Z,15.46
2022-10-09T21:04:25.912Z,15.44
2022-10-09T21:06:54.918Z,15.56
2022-10-09T21:09:21.633Z,15.57
2022-10-09T21:11:48.421Z,15.58
2022-10-09T21:14:15.326Z,15.61
2022-10-09T21:16:42.026Z,15.62
2022-10-09T21:19:10.704Z,15.57
2022-10-09T21:21:37.006Z,15.54
2022-10-09T21:24:03.616Z,15.56
2022-10-09T21:26:35.141Z,15.54
2022-10-09T21:29:04.058Z,15.50
2022-10-09T21:31:31.598Z,15.61
2022-10-09T21:33:59.932Z,15.57
2022-10-09T21:37:16.391Z,15.62
2022-10-09T21:39:34.709Z,15.58
2022-10-09T21:42:01.011Z,15.62
2022-10-09T21:44:27.531Z,15.67
2022-10-09T21:46:53.911Z,15.64
2022-10-09T21:49:23.042Z,15.65
2022-10-09T21:51:49.742Z,15.58
2022-10-09T21:54:16.479Z,15.50
2022-10-09T21:56:42.984Z,15.44
2022-10-09T21:59:09.776Z,15.41
2022-10-09T22:01:36.256Z,15.48
2022-10-09T22:04:02.921Z,15.48
2022-10-09T22:06:29.264Z,15.51
2022-10-09T22:08:55.665Z,15.47
2022-10-09T22:11:22.127Z,15.51
2022-10-09T22:13:48.454Z,15.44
2022-10-09T22:16:15.457Z,15.45
2022-10-09T22:18:42.495Z,15.49
2022-10-09T22:21:13.635Z,15.30
2022-10-09T22:23:40.620Z,15.33
2022-10-09T22:26:11.173Z,15.37
2022-10-09T22:28:37.854Z,15.39
2022-10-09T22:31:13.540Z,15.39
2022-10-09T22:33:40.046Z,15.31
2022-10-09T22:36:12.321Z,15.34
2022-10-09T22:38:40.012Z,15.22
2022-10-09T22:41:10.211Z,15.23
2022-10-09T22:43:37.731Z,15.18
2022-10-09T22:46:06.316Z,15.13
2022-10-09T22:48:32.706Z,15.11
2022-10-09T22:51:01.764Z,15.13
2022-10-09T22:53:28.067Z,15.10
2022-10-09T22:55:54.387Z,15.06
2022-10-09T22:58:20.698Z,15.06
2022-10-09T23:00:47.329Z,15.15
2022-10-09T23:03:13.698Z,15.09
2022-10-09T23:05:39.985Z,15.13
2022-10-09T23:08:06.267Z,15.14
2022-10-09T23:10:37.237Z,15.14
2022-10-09T23:13:03.940Z,15.09
2022-10-09T23:15:30.501Z,15.08
2022-10-09T23:17:56.799Z,15.13
2022-10-09T23:20:23.089Z,15.12
2022-10-09T23:22:49.717Z,15.19
2022-10-09T23:25:16.189Z,15.05
2022-10-09T23:27:42.500Z,15.10
2022-10-09T23:30:09.278Z,15.04
2022-10-09T23:32:35.590Z,15.03
2022-10-09T23:35:01.871Z,14.91
2022-10-09T23:37:28.197Z,14.89
2022-10-09T23:39:54.509Z,14.86
2022-10-09T23:42:20.850Z,14.97
2022-10-09T23:44:47.212Z,14.94
2022-10-09T23:47:13.637Z,14.96
2022-10-09T23:49:40.115Z,14.88
2022-10-09T23:52:06.416Z,14.87
2022-10-09T23:54:32.905Z,14.93
2022-10-09T23:56:59.306Z,14.90
2022-10-09T23:59:25.597Z,14.96
